Time;durP1;ratioP1;P1;durP2;ratioP2;P2;SDS_P1;SDS_P2;PMS_P1;PMS_P2;Temp;Humidity;BMP_temperature;BMP_pressure;BME280_temperature;BME280_humidity;BME280_pressure;Samples;Min_cycle;Max_cycle;Signal;HPM_P1;HPM_P2
2022/06/21 00:01:00;;;;;;;4.00;1.52;;;;;;;26.04;49.33;100836.75;1551876;91;21620;-51
2022/06/21 00:03:28;;;;;;;1.90;1.80;;;;;;;26.05;49.40;100833.13;1561599;91;21056;-50
2022/06/21 00:05:56;;;;;;;2.72;1.62;;;;;;;26.06;49.64;100826.80;1545624;92;21106;-52
2022/06/21 00:08:32;;;;;;;1.90;1.80;;;;;;;26.06;49.91;100821.47;1530543;92;21066;-53
2022/06/21 00:10:59;;;;;;;1.70;1.60;;;;;;;26.06;50.23;100820.14;1461806;97;21130;-52
2022/06/21 00:13:33;;;;;;;2.98;1.92;;;;;;;26.07;50.39;100819.17;1461778;97;21102;-50
2022/06/21 00:16:06;;;;;;;2.10;1.90;;;;;;;26.07;50.37;100812.51;1484118;96;21157;-51
2022/06/21 00:18:35;;;;;;;2.72;1.77;;;;;;;26.06;50.25;100808.13;1480984;96;21120;-50
2022/06/21 00:21:02;;;;;;;3.12;2.20;;;;;;;26.06;49.80;100805.47;1497349;94;21146;-51
2022/06/21 00:23:31;;;;;;;3.37;1.92;;;;;;;26.05;49.55;100797.95;1506678;94;21146;-51
2022/06/21 00:25:58;;;;;;;3.27;1.87;;;;;;;26.04;49.30;100784.75;1520546;93;21148;-50
2022/06/21 00:28:25;;;;;;;1.77;1.67;;;;;;;26.02;48.93;100786.23;1501468;94;21569;-50
2022/06/21 00:30:54;;;;;;;2.08;1.87;;;;;;;26.00;48.96;100783.33;1474970;96;21198;-52
2022/06/21 00:33:22;;;;;;;2.67;1.62;;;;;;;25.96;48.86;100778.75;1471591;96;21514;-50
2022/06/21 00:35:53;;;;;;;4.05;1.70;;;;;;;25.91;48.93;100771.63;1515765;94;21081;-51
2022/06/21 00:38:30;;;;;;;4.67;1.50;;;;;;;25.88;48.94;100772.37;1515782;94;21097;-51
2022/06/21 00:40:59;;;;;;;1.80;1.70;;;;;;;25.84;49.01;100773.14;1514909;94;21605;-51
2022/06/21 00:43:29;;;;;;;2.58;1.90;;;;;;;25.81;49.03;100767.56;1515682;94;21045;-51
2022/06/21 00:45:56;;;;;;;1.77;1.57;;;;;;;25.79;49.05;100764.19;1515825;94;21056;-49
2022/06/21 00:48:38;;;;;;;1.95;1.60;;;;;;;25.77;49.08;100760.81;1544839;91;21063;-50
2022/06/21 00:51:22;;;;;;;2.92;1.52;;;;;;;25.75;49.07;100766.76;1555689;91;21507;-50
2022/06/21 00:53:56;;;;;;;4.22;1.60;;;;;;;25.75;49.28;100760.09;1555514;91;21062;-51
2022/06/21 00:56:28;;;;;;;1.98;1.77;;;;;;;25.75;49.28;100760.09;1594361;89;21086;-51
2022/06/21 00:58:55;;;;;;;2.25;2.12;;;;;;;25.75;49.14;100755.23;1596550;89;21115;-51
2022/06/21 01:01:28;;;;;;;2.83;2.17;;;;;;;25.72;49.15;100751.01;1596752;89;21084;-50
2022/06/21 01:03:59;;;;;;;2.17;1.70;;;;;;;25.68;48.73;100754.05;1596622;89;21084;-51
2022/06/21 01:06:33;;;;;;;1.60;1.50;;;;;;;25.68;48.73;100754.05;1593675;89;21028;-49
2022/06/21 01:09:08;;;;;;;2.77;1.40;;;;;;;25.64;48.39;100758.81;1645251;86;21111;-55
2022/06/21 01:11:42;;;;;;;3.58;1.50;;;;;;;25.62;48.29;100760.76;1644547;85;21104;-50
2022/06/21 01:14:09;;;;;;;2.05;1.60;;;;;;;25.57;47.93;100760.80;1624117;84;21031;-51
2022/06/21 01:16:36;;;;;;;1.65;1.40;;;;;;;25.57;47.93;100760.80;1668562;85;21509;-49
2022/06/21 01:19:03;;;;;;;3.15;1.70;;;;;;;25.54;47.74;100759.23;1649382;86;21510;-53
2022/06/21 01:21:31;;;;;;;3.55;1.50;;;;;;;25.49;47.79;100753.42;1634600;86;21030;-49
2022/06/21 01:24:18;;;;;;;2.50;1.60;;;;;;;25.51;48.06;100756.80;1671479;84;21111;-50
2022/06/21 01:27:00;;;;;;;1.70;1.60;;;;;;;25.48;48.19;100765.07;1667886;85;21043;-50
2022/06/21 01:29:30;;;;;;;3.33;1.77;;;;;;;25.44;48.30;100762.78;1645678;86;21038;-50
2022/06/21 01:32:00;;;;;;;5.00;2.25;;;;;;;25.39;48.59;100759.64;1668258;85;21109;-53
2022/06/21 01:34:28;;;;;;;2.95;1.70;;;;;;;25.33;49.07;100755.64;1666544;85;21039;-50
2022/06/21 01:37:15;;;;;;;3.22;1.80;;;;;;;25.29;49.06;100750.21;1668807;85;21094;-51
2022/06/21 01:39:46;;;;;;;2.37;1.80;;;;;;;25.29;49.06;100750.21;1585287;90;21071;-54
2022/06/21 01:42:33;;;;;;;1.95;1.70;;;;;;;25.27;49.09;100752.16;1586785;90;21618;-50
2022/06/21 01:45:05;;;;;;;2.00;1.82;;;;;;;25.24;49.34;100744.44;1554309;92;21109;-50
2022/06/21 01:47:46;;;;;;;2.17;1.87;;;;;;;25.25;49.49;100754.10;1554087;92;21081;-50
2022/06/21 01:50:13;;;;;;;;;;;;;;;25.24;49.50;100752.43;1438385;100;21148;-51
2022/06/21 01:52:44;;;;;;;2.92;1.92;;;;;;;25.24;49.54;100760.42;1436185;100;20170;-51
2022/06/21 01:55:19;;;;;;;1.87;1.57;;;;;;;25.25;49.66;100762.57;1402666;102;21112;-51
2022/06/21 01:57:46;;;;;;;1.62;1.52;;;;;;;25.24;49.71;100763.56;1401328;102;21601;-50
2022/06/21 02:00:14;;;;;;;3.87;1.60;;;;;;;25.24;49.80;100763.56;1402411;102;21151;-50
2022/06/21 02:02:48;;;;;;;2.22;2.00;;;;;;;25.21;49.99;100761.98;1401384;102;21557;-50
2022/06/21 02:05:25;;;;;;;4.22;1.90;;;;;;;25.24;49.98;100760.89;1402434;102;21123;-49
2022/06/21 02:07:56;;;;;;;2.10;1.90;;;;;;;25.23;50.04;100758.71;1401232;102;21178;-52
2022/06/21 02:10:32;;;;;;;2.35;2.02;;;;;;;25.22;50.14;100758.37;1399387;102;21137;-53
2022/06/21 02:13:15;;;;;;;2.50;2.00;;;;;;;25.20;50.26;100765.64;1402407;102;21105;-50
2022/06/21 02:15:52;;;;;;;3.65;2.17;;;;;;;25.18;50.37;100762.25;1421521;100;21568;-51
2022/06/21 02:18:19;;;;;;;2.37;1.90;;;;;;;25.10;50.59;100759.34;1392448;101;21107;-50
2022/06/21 02:21:17;;;;;;;2.85;2.17;;;;;;;25.10;50.59;100759.34;1390276;102;21204;-50
2022/06/21 02:23:48;;;;;;;3.30;2.25;;;;;;;25.11;50.95;100762.86;1393433;102;21160;-51
2022/06/21 02:26:15;;;;;;;2.25;1.82;;;;;;;25.08;51.09;100758.63;1400783;101;21152;-51
2022/06/21 02:28:42;;;;;;;4.62;2.10;;;;;;;25.05;51.15;100745.58;1400612;102;21186;-56
2022/06/21 02:31:09;;;;;;;3.20;2.10;;;;;;;25.05;51.15;100745.58;1396084;102;21173;-50
2022/06/21 02:33:36;;;;;;;2.40;1.70;;;;;;;25.06;51.17;100740.60;1390680;103;21130;-51
2022/06/21 02:36:13;;;;;;;2.47;2.05;;;;;;;25.06;51.17;100740.60;1415588;100;21101;-55
2022/06/21 02:38:44;;;;;;;3.72;2.02;;;;;;;25.09;50.97;100751.02;1444165;96;21607;-52
2022/06/21 02:41:17;;;;;;;;;;;;;;;25.09;50.91;100748.35;1424839;98;21111;-53
2022/06/21 02:43:49;;;;;;;2.87;2.15;;;;;;;25.10;50.93;100746.03;1413647;100;20165;-51
2022/06/21 02:46:26;;;;;;;3.08;1.87;;;;;;;25.10;50.90;100738.05;1411604;98;21054;-53
2022/06/21 02:48:58;;;;;;;2.22;2.02;;;;;;;25.12;50.92;100728.14;1441555;100;21202;-50
2022/06/21 02:51:30;;;;;;;2.20;1.95;;;;;;;25.12;50.95;100730.81;1441261;99;21118;-51
2022/06/21 02:54:07;;;;;;;4.15;1.80;;;;;;;25.12;50.95;100730.81;1431430;100;21171;-50
2022/06/21 02:57:05;;;;;;;2.27;2.08;;;;;;;25.19;50.71;100739.97;1431618;99;21285;-52
2022/06/21 02:59:34;;;;;;;4.55;2.10;;;;;;;25.19;50.71;100739.97;1431701;100;21136;-50
2022/06/21 03:02:10;;;;;;;2.15;1.95;;;;;;;25.20;50.79;100739.01;1441604;98;21600;-49
2022/06/21 03:04:50;;;;;;;2.05;1.95;;;;;;;25.22;50.83;100734.40;1452776;97;21147;-54
2022/06/21 03:07:24;;;;;;;2.05;1.85;;;;;;;25.24;50.87;100732.45;1452822;97;21152;-50
2022/06/21 03:09:52;;;;;;;3.83;2.22;;;;;;;25.25;50.82;100734.12;1452850;97;21211;-52
2022/06/21 03:12:29;;;;;;;2.22;1.80;;;;;;;25.27;50.77;100724.67;1475908;96;21590;-51
2022/06/21 03:15:04;;;;;;;2.00;1.90;;;;;;;25.30;50.73;100723.95;1505273;94;21147;-55
2022/06/21 03:17:48;;;;;;;2.22;1.77;;;;;;;25.34;50.69;100734.70;1520146;93;21079;-52
2022/06/21 03:20:18;;;;;;;2.83;1.80;;;;;;;25.34;50.69;100734.70;1520201;93;21151;-50
2022/06/21 03:22:45;;;;;;;2.45;1.80;;;;;;;25.38;50.56;100735.29;1520159;93;21535;-50
2022/06/21 03:25:23;;;;;;;3.35;1.75;;;;;;;25.42;50.21;100724.29;1520068;93;21107;-53
2022/06/21 03:27:55;;;;;;;2.00;1.80;;;;;;;25.42;50.21;100724.29;1520084;93;21139;-54
2022/06/21 03:30:27;;;;;;;2.27;2.07;;;;;;;25.49;50.34;100730.77;1520843;92;21071;-50
2022/06/21 03:32:54;;;;;;;2.17;1.80;;;;;;;25.54;50.28;100725.06;1488099;96;21369;-53
2022/06/21 03:35:21;;;;;;;2.33;1.80;;;;;;;25.57;50.20;100728.34;1488416;95;21133;-51
2022/06/21 03:37:49;;;;;;;1.82;1.50;;;;;;;25.65;50.22;100732.53;1488596;96;21609;-52
2022/06/21 03:43:29;;;;;;;2.60;1.70;;;;;;;25.98;50.71;100728.80;1512353;93;21112;-49
2022/06/21 03:45:57;;;;;;;1.32;1.22;;;;;;;25.98;50.71;100728.80;1502439;93;21103;-52
2022/06/21 03:48:35;;;;;;;2.77;1.35;;;;;;;26.55;50.45;100722.89;1496336;94;21104;-51
2022/06/21 03:51:09;;;;;;;1.70;1.60;;;;;;;27.27;49.12;100724.31;1456609;97;21167;-53
2022/06/21 03:53:49;;;;;;;1.45;1.20;;;;;;;28.21;47.56;100718.66;1462829;98;21150;-49
2022/06/21 03:56:36;;;;;;;2.30;1.30;;;;;;;29.14;45.64;100716.60;1463497;96;21513;-49
2022/06/21 03:59:21;;;;;;;3.25;1.45;;;;;;;30.10;43.73;100720.58;1461654;96;21100;-50
2022/06/21 04:01:59;;;;;;;3.42;1.67;;;;;;;30.98;42.07;100725.52;1442630;98;21130;-49
2022/06/21 04:04:51;;;;;;;3.37;1.77;;;;;;;31.52;40.47;100726.28;1449239;98;21155;-48
2022/06/21 04:07:36;;;;;;;1.30;1.20;;;;;;;31.66;39.94;100717.53;1446766;98;21165;-53
2022/06/21 04:10:17;;;;;;;2.40;1.60;;;;;;;31.53;40.17;100721.22;1441714;98;21198;-50
2022/06/21 04:12:57;;;;;;;2.00;1.77;;;;;;;31.33;40.43;100717.16;1420966;100;21119;-51
2022/06/21 04:15:41;;;;;;;3.00;1.67;;;;;;;31.16;40.19;100708.24;1446437;98;21132;-51
2022/06/21 04:18:26;;;;;;;1.50;1.40;;;;;;;31.08;40.07;100705.55;1442859;98;21149;-52
2022/06/21 04:21:14;;;;;;;3.20;1.50;;;;;;;30.94;39.96;100712.07;1445950;98;21115;-49
2022/06/21 04:23:56;;;;;;;1.57;1.47;;;;;;;30.72;39.98;100705.95;1445847;98;21106;-50
2022/06/21 04:26:31;;;;;;;2.80;1.65;;;;;;;30.44;40.23;100699.47;1445812;98;21671;-48
2022/06/21 04:29:16;;;;;;;1.65;1.55;;;;;;;30.15;40.71;100701.65;1444571;98;21126;-50
2022/06/21 04:31:54;;;;;;;3.05;1.90;;;;;;;29.89;41.29;100699.50;1436801;98;21736;-50
2022/06/21 04:34:26;;;;;;;3.00;2.00;;;;;;;29.62;41.67;100695.58;1438431;100;21681;-50
2022/06/21 04:36:58;;;;;;;2.85;1.42;;;;;;;29.40;41.99;100690.73;1454569;97;21565;-49
2022/06/21 04:39:30;;;;;;;2.42;1.77;;;;;;;29.19;42.41;100688.86;1474614;95;21107;-51
2022/06/21 04:42:20;;;;;;;2.08;1.60;;;;;;;29.00;42.87;100697.86;1537523;91;21059;-50
2022/06/21 04:45:13;;;;;;;1.87;1.65;;;;;;;28.84;43.27;100698.55;1543426;93;21612;-51
2022/06/21 04:47:48;;;;;;;2.00;1.80;;;;;;;28.68;43.64;100694.36;1556019;89;21133;-51
2022/06/21 04:50:31;;;;;;;1.70;1.60;;;;;;;28.55;43.94;100691.16;1582914;91;21666;-49
2022/06/21 04:53:21;;;;;;;1.85;1.55;;;;;;;28.43;44.26;100676.78;1582895;90;21587;-51
2022/06/21 04:55:57;;;;;;;2.83;1.60;;;;;;;28.33;44.60;100671.49;1577797;91;21603;-51
2022/06/21 04:58:24;;;;;;;3.50;1.80;;;;;;;28.25;44.94;100670.55;1562711;92;21151;-51
2022/06/21 05:00:53;;;;;;;2.10;1.90;;;;;;;28.16;45.34;100672.27;1566621;91;21158;-50
2022/06/21 05:03:34;;;;;;;2.30;1.55;;;;;;;28.10;45.69;100675.53;1569240;91;21545;-52
2022/06/21 05:06:01;;;;;;;1.70;1.60;;;;;;;28.09;46.02;100685.39;1523629;94;21081;-50
2022/06/21 05:08:29;;;;;;;2.08;1.85;;;;;;;28.15;46.32;100689.33;1523602;94;21592;-51
2022/06/21 05:10:59;;;;;;;5.90;1.70;;;;;;;28.29;46.30;100686.16;1524051;94;21105;-49
2022/06/21 05:13:36;;;;;;;2.45;1.77;;;;;;;28.49;46.02;100675.70;1523952;94;21094;-49
2022/06/21 05:16:25;;;;;;;3.00;1.25;;;;;;;28.74;45.10;100668.32;1523853;94;21113;-50
2022/06/21 05:18:59;;;;;;;2.12;1.47;;;;;;;29.02;44.49;100671.76;1523837;94;21592;-51
2022/06/21 05:21:34;;;;;;;2.80;1.75;;;;;;;29.30;44.13;100665.85;1527762;93;21571;-50
2022/06/21 05:24:02;;;;;;;4.40;2.00;;;;;;;29.58;43.40;100665.56;1540456;92;21095;-50
2022/06/21 05:26:41;;;;;;;1.62;1.47;;;;;;;29.85;42.64;100665.09;1525905;93;21071;-53
2022/06/21 05:29:17;;;;;;;1.90;1.60;;;;;;;30.05;42.31;100662.02;1551100;91;21266;-51
2022/06/21 05:31:46;;;;;;;4.90;1.82;;;;;;;30.22;41.87;100666.47;1544856;92;21117;-52
2022/06/21 05:34:20;;;;;;;3.65;1.60;;;;;;;30.33;41.50;100668.06;1533693;93;21601;-51
2022/06/21 05:37:07;;;;;;;1.72;1.50;;;;;;;30.35;41.50;100666.05;1527620;91;21093;-52
2022/06/21 05:39:39;;;;;;;4.15;1.40;;;;;;;30.31;41.49;100658.83;1483471;97;21153;-51
2022/06/21 05:42:07;;;;;;;2.55;1.52;;;;;;;30.23;41.55;100648.52;1483981;97;21073;-49
2022/06/21 05:44:41;;;;;;;3.65;1.80;;;;;;;30.13;41.93;100645.95;1521434;93;21147;-51
2022/06/21 05:47:19;;;;;;;1.85;1.47;;;;;;;30.02;42.35;100635.52;1527175;91;21569;-51
2022/06/21 05:49:46;;;;;;;4.28;1.80;;;;;;;29.92;42.49;100640.17;1572872;91;21089;-49
2022/06/21 05:52:24;;;;;;;2.12;1.72;;;;;;;29.81;42.59;100639.09;1569865;91;21113;-51
2022/06/21 05:54:59;;;;;;;3.65;1.65;;;;;;;29.70;42.93;100636.14;1573740;87;21646;-53
2022/06/21 05:57:34;;;;;;;2.20;1.80;;;;;;;29.60;43.36;100634.56;1614434;87;21027;-50
2022/06/21 06:00:03;;;;;;;2.12;1.52;;;;;;;29.52;43.61;100634.52;1578820;90;21458;-51
2022/06/21 06:02:39;;;;;;;3.12;1.60;;;;;;;29.48;43.87;100641.19;1579209;90;21139;-50
2022/06/21 06:05:17;;;;;;;2.83;1.70;;;;;;;29.44;44.09;100638.48;1578775;90;21132;-49
2022/06/21 06:07:48;;;;;;;2.98;1.40;;;;;;;29.42;44.26;100632.44;1578284;90;21105;-49
2022/06/21 06:10:15;;;;;;;2.15;1.60;;;;;;;29.45;44.05;100624.09;1523180;93;21557;-50
2022/06/21 06:12:44;;;;;;;2.30;1.45;;;;;;;29.51;44.07;100615.42;1507154;93;21183;-52
2022/06/21 06:15:22;;;;;;;1.75;1.30;;;;;;;29.56;43.76;100620.64;1500502;93;21101;-52
2022/06/21 06:17:55;;;;;;;1.30;1.20;;;;;;;29.66;43.68;100617.34;1525471;93;21169;-53
2022/06/21 06:20:46;;;;;;;1.98;1.72;;;;;;;29.84;43.47;100615.98;1526221;93;21125;-50
2022/06/21 06:23:41;;;;;;;2.27;1.40;;;;;;;30.07;42.92;100614.39;1511886;93;21085;-51
2022/06/21 06:26:16;;;;;;;2.80;1.30;;;;;;;30.39;42.06;100611.88;1540720;92;21084;-51
2022/06/21 06:28:58;;;;;;;1.95;1.40;;;;;;;30.72;40.70;100606.56;1536797;92;21117;-52
2022/06/21 06:31:39;;;;;;;3.52;1.55;;;;;;;30.98;39.70;100612.65;1532888;92;21095;-50
2022/06/21 06:34:11;;;;;;;2.75;1.55;;;;;;;31.18;39.07;100607.30;1534624;92;21151;-50
2022/06/21 06:36:47;;;;;;;4.17;1.07;;;;;;;31.27;39.01;100608.95;1473833;96;21089;-52
2022/06/21 06:39:28;;;;;;;2.02;1.40;;;;;;;31.29;39.06;100606.93;1489641;95;21088;-52
2022/06/21 06:42:18;;;;;;;2.75;1.37;;;;;;;31.24;38.93;100599.89;1496638;96;21089;-49
2022/06/21 06:44:51;;;;;;;1.77;1.65;;;;;;;31.15;38.93;100596.37;1495698;96;21147;-51
2022/06/21 06:47:28;;;;;;;1.77;1.45;;;;;;;31.06;39.00;100596.52;1440478;99;21131;-50
2022/06/21 06:50:05;;;;;;;3.15;1.50;;;;;;;30.99;38.87;100592.84;1440036;99;21122;-49
2022/06/21 06:52:37;;;;;;;1.50;1.30;;;;;;;30.94;38.95;100591.15;1439743;99;21134;-51
2022/06/21 06:55:26;;;;;;;2.65;1.40;;;;;;;30.88;38.92;100585.11;1379489;104;21621;-48
2022/06/21 06:58:21;;;;;;;2.17;1.40;;;;;;;30.83;38.89;100580.72;1402464;101;21139;-51
2022/06/21 07:00:55;;;;;;;1.40;1.30;;;;;;;30.80;39.51;100585.08;1402543;101;21225;-52
2022/06/21 07:03:38;;;;;;;3.40;1.22;;;;;;;30.76;39.58;100577.02;1362652;104;21196;-49
2022/06/21 07:06:40;;;;;;;2.95;1.60;;;;;;;30.77;39.33;100567.97;1327397;107;21680;-52
2022/06/21 07:09:30;;;;;;;2.10;1.40;;;;;;;30.87;39.10;100568.66;1342555;105;21209;-53
2022/06/21 07:12:15;;;;;;;1.57;1.20;;;;;;;30.98;38.96;100575.03;1342846;106;21198;-57
2022/06/21 07:14:43;;;;;;;2.10;1.70;;;;;;;31.00;38.92;100581.07;1335291;106;21174;-55
2022/06/21 07:17:38;;;;;;;1.85;1.42;;;;;;;31.00;39.23;100590.48;1342813;107;21664;-56
2022/06/21 07:20:18;;;;;;;1.72;1.40;;;;;;;31.02;39.37;100585.77;1322557;107;21229;-50
2022/06/21 07:22:45;;;;;;;1.30;1.20;;;;;;;31.11;39.27;100586.97;1294826;110;21198;-49
2022/06/21 07:25:38;;;;;;;1.55;1.25;;;;;;;31.25;39.17;100580.05;1295733;110;21186;-54
2022/06/21 07:28:22;;;;;;;1.52;1.40;;;;;;;31.43;39.00;100574.00;1294761;110;21251;-49
2022/06/21 07:30:51;;;;;;;3.35;1.30;;;;;;;31.63;38.99;100565.90;1294205;110;21170;-50
2022/06/21 07:33:39;;;;;;;3.22;1.77;;;;;;;31.74;38.86;100558.78;1304821;108;21230;-55
2022/06/21 07:36:21;;;;;;;1.57;1.20;;;;;;;31.78;38.85;100557.41;1263861;113;21216;-50
2022/06/21 07:38:59;;;;;;;1.90;1.50;;;;;;;31.79;38.48;100565.84;1263906;113;21669;-52
2022/06/21 07:41:33;;;;;;;3.50;1.30;;;;;;;31.77;38.22;100573.24;1264096;113;21279;-50
2022/06/21 07:44:15;;;;;;;3.67;1.30;;;;;;;31.75;38.52;100569.89;1271318;110;21674;-53
2022/06/21 07:46:47;;;;;;;1.67;1.27;;;;;;;31.71;37.64;100573.94;1258458;114;21334;-50
2022/06/21 07:49:25;;;;;;;2.50;1.32;;;;;;;31.66;37.44;100578.14;1236016;115;21220;-53
2022/06/21 07:51:57;;;;;;;2.58;1.25;;;;;;;31.60;37.09;100579.68;1244392;113;21214;-51
2022/06/21 07:54:42;;;;;;;3.27;1.37;;;;;;;31.51;37.23;100580.70;1258125;113;21208;-53
2022/06/21 07:57:16;;;;;;;1.50;1.35;;;;;;;31.43;37.79;100575.34;1234521;114;21359;-53
2022/06/21 07:59:53;;;;;;;1.90;1.25;;;;;;;31.34;38.40;100576.35;1235781;115;21262;-49
2022/06/21 08:08:18;;;;;;;2.95;1.32;;;;;;;31.23;39.50;100575.34;1220955;116;21216;-50
2022/06/21 08:14:23;;;;;;;3.45;1.62;;;;;;;31.16;40.32;100562.27;1143748;123;21236;-53
2022/06/21 08:17:20;;;;;;;1.75;1.52;;;;;;;31.10;41.61;100570.48;1144242;125;21245;-52
2022/06/21 08:20:04;;;;;;;2.22;1.90;;;;;;;31.05;42.09;100571.52;1168133;121;21257;-48
2022/06/21 08:23:06;;;;;;;2.12;1.70;;;;;;;30.99;42.13;100569.51;1168934;121;21216;-53
2022/06/21 08:25:58;;;;;;;1.60;1.50;;;;;;;30.95;41.98;100560.60;1169087;120;21260;-50
2022/06/21 08:28:33;;;;;;;2.87;1.60;;;;;;;30.91;42.09;100551.20;1141129;124;21412;-50
2022/06/21 08:31:25;;;;;;;4.83;1.70;;;;;;;30.86;42.25;100553.05;1140975;124;21866;-57
2022/06/21 08:33:57;;;;;;;2.75;1.50;;;;;;;30.84;42.32;100551.48;1139583;124;21293;-51
2022/06/21 08:36:32;;;;;;;1.55;1.45;;;;;;;30.82;41.96;100556.19;1139326;124;21785;-51
2022/06/21 08:39:19;;;;;;;2.42;1.70;;;;;;;30.79;42.08;100564.61;1139386;124;21325;-53
2022/06/21 08:42:13;;;;;;;1.90;1.60;;;;;;;30.74;41.98;100572.31;1157975;115;21220;-52
2022/06/21 08:48:32;;;;;;;1.72;1.62;;;;;;;30.65;42.26;100563.89;1325520;107;21222;-54
2022/06/21 08:51:43;;;;;;;1.82;1.72;;;;;;;30.63;42.46;100559.20;1325076;106;21354;-51
2022/06/21 08:54:33;;;;;;;6.17;1.90;;;;;;;30.62;42.76;100570.95;1340772;106;21692;-54
2022/06/21 08:57:21;;;;;;;;;;;;;;;30.59;42.84;100560.53;1355966;104;21158;-56
2022/06/21 09:00:17;;;;;;;2.92;1.80;;;;;;;30.56;43.43;100547.45;1360169;104;20141;-53
2022/06/21 09:03:11;;;;;;;4.78;1.85;;;;;;;30.52;44.00;100537.56;1360140;104;21135;-51
2022/06/21 09:06:10;;;;;;;2.75;1.70;;;;;;;30.51;44.54;100543.42;1361347;103;21173;-50
2022/06/21 09:09:12;;;;;;;2.30;1.87;;;;;;;30.52;44.65;100537.03;1434621;97;21138;-55
2022/06/21 09:11:48;;;;;;;2.45;2.02;;;;;;;30.56;44.65;100532.69;1391644;102;21222;-52
2022/06/21 09:14:40;;;;;;;3.37;2.00;;;;;;;30.59;44.65;100539.05;1390981;101;21102;-50
2022/06/21 09:17:48;;;;;;;5.12;1.77;;;;;;;30.60;44.78;100530.84;1371939;103;21695;-56
2022/06/21 09:20:41;;;;;;;4.92;1.90;;;;;;;30.62;44.83;100534.70;1395571;98;21139;-52
2022/06/21 09:23:25;;;;;;;2.90;1.77;;;;;;;30.66;44.64;100540.08;1450904;96;21120;-51
2022/06/21 09:26:32;;;;;;;2.02;1.65;;;;;;;30.67;44.64;100543.08;1470150;96;21089;-52
2022/06/21 09:29:26;;;;;;;4.65;1.80;;;;;;;30.70;44.82;100536.05;1480140;96;21116;-52
2022/06/21 09:32:07;;;;;;;4.67;1.85;;;;;;;30.71;44.56;100521.09;1485352;96;21069;-53
2022/06/21 09:35:11;;;;;;;3.20;1.90;;;;;;;30.74;44.78;100519.43;1434516;99;21122;-53
2022/06/21 09:37:53;;;;;;;1.70;1.60;;;;;;;30.79;44.72;100525.66;1435716;99;21583;-50
2022/06/21 09:40:44;;;;;;;4.17;2.15;;;;;;;30.85;44.72;100515.61;1397504;102;21219;-50
2022/06/21 09:43:19;;;;;;;1.83;1.73;;;;;;;30.88;44.52;100516.59;1395523;102;21117;-49
2022/06/21 09:46:21;;;;;;;3.42;1.67;;;;;;;30.91;44.36;100518.46;1390823;102;21401;-51
2022/06/21 09:49:22;;;;;;;2.70;1.60;;;;;;;30.93;44.55;100510.22;1506780;93;21059;-52
2022/06/21 09:52:00;;;;;;;4.67;1.93;;;;;;;30.97;44.59;100502.16;1529473;93;21606;-51
2022/06/21 09:54:41;;;;;;;13.22;1.90;;;;;;;30.99;44.23;100498.79;1482580;96;22337;-53
2022/06/21 09:57:26;;;;;;;2.12;1.70;;;;;;;30.99;44.42;100501.48;1498324;94;21095;-52
2022/06/21 10:00:31;;;;;;;2.00;1.75;;;;;;;31.01;44.46;100503.49;1456162;97;21124;-52
2022/06/21 10:03:33;;;;;;;3.17;1.87;;;;;;;31.03;44.42;100497.44;1456170;97;21154;-51
2022/06/21 10:06:24;;;;;;;;;;;;;;;31.04;44.64;100497.76;1431536;100;21629;-53
2022/06/21 10:09:04;;;;;;;4.70;2.00;;;;;;;31.08;44.76;100494.56;1430150;100;20176;-49
2022/06/21 10:11:52;;;;;;;2.60;1.80;;;;;;;31.09;43.68;100486.00;1425731;100;21627;-48
2022/06/21 10:14:33;;;;;;;3.00;1.70;;;;;;;31.09;43.38;100484.66;1437191;99;21176;-52
2022/06/21 10:17:20;;;;;;;2.25;1.87;;;;;;;31.09;43.21;100483.31;1452359;98;21194;-49
2022/06/21 10:20:00;;;;;;;4.00;2.22;;;;;;;31.08;42.91;100481.63;1440100;97;21115;-52
2022/06/21 10:22:58;;;;;;;2.45;1.80;;;;;;;31.09;43.18;100471.22;1435320;97;21119;-53
2022/06/21 10:25:47;;;;;;;2.20;1.90;;;;;;;31.09;43.58;100468.53;1443811;97;22554;-52
2022/06/21 10:28:42;;;;;;;8.48;2.40;;;;;;;31.07;43.32;100466.52;1470880;94;21110;-53
2022/06/21 10:31:39;;;;;;;2.45;1.87;;;;;;;31.05;43.62;100463.17;1483589;94;21090;-51
2022/06/21 10:34:36;;;;;;;5.53;1.98;;;;;;;31.06;43.78;100466.17;1493684;94;21118;-52
2022/06/21 10:37:30;;;;;;;2.30;1.52;;;;;;;31.06;43.78;100470.20;1522979;91;21103;-51
2022/06/21 10:40:28;;;;;;;2.20;1.95;;;;;;;31.09;43.85;100467.19;1549048;90;21043;-55
2022/06/21 10:43:37;;;;;;;5.72;2.00;;;;;;;31.11;43.81;100465.17;1548980;90;21071;-49
2022/06/21 10:46:19;;;;;;;3.65;2.08;;;;;;;31.15;43.90;100466.50;1550241;91;21114;-52
2022/06/21 10:49:35;;;;;;;2.52;1.80;;;;;;;31.18;43.81;100460.80;1515686;93;21190;-51
2022/06/21 10:52:16;;;;;;;2.95;1.80;;;;;;;31.21;43.18;100460.44;1572420;89;21098;-52
2022/06/21 10:55:12;;;;;;;4.33;1.95;;;;;;;31.22;42.89;100458.09;1579504;89;21066;-51
2022/06/21 10:58:18;;;;;;;3.05;1.95;;;;;;;31.25;43.00;100446.98;1585538;89;21067;-49
2022/06/21 11:01:18;;;;;;;4.28;1.90;;;;;;;31.27;42.73;100443.61;1542365;92;21131;-49
2022/06/21 11:04:25;;;;;;;4.05;1.62;;;;;;;31.29;42.64;100441.59;1492158;96;22377;-53
2022/06/21 11:07:19;;;;;;;2.20;1.50;;;;;;;31.31;42.94;100436.87;1502094;95;21629;-49
2022/06/21 11:10:20;;;;;;;3.52;1.80;;;;;;;31.33;43.01;100437.53;1472993;97;21102;-49
2022/06/21 11:12:53;;;;;;;3.45;1.72;;;;;;;31.34;42.68;100428.47;1452428;98;21135;-49
2022/06/21 11:15:52;;;;;;;2.12;1.62;;;;;;;31.37;42.44;100423.26;1458177;98;21125;-55
2022/06/21 11:18:39;;;;;;;3.42;1.92;;;;;;;31.36;42.37;100426.45;1436196;99;21107;-51
2022/06/21 11:21:11;;;;;;;3.47;1.90;;;;;;;31.34;42.14;100427.13;1447289;98;21566;-51
2022/06/21 11:23:50;;;;;;;2.35;1.70;;;;;;;31.33;41.94;100418.72;1449193;98;21697;-50
2022/06/21 11:26:34;;;;;;;5.33;1.70;;;;;;;31.34;41.89;100409.66;1432645;99;21106;-49
2022/06/21 11:29:21;;;;;;;2.67;1.70;;;;;;;31.35;41.93;100406.47;1443873;99;21115;-52
2022/06/21 11:32:00;;;;;;;4.08;2.00;;;;;;;31.35;42.08;100403.25;1385384;103;21153;-52
2022/06/21 11:34:56;;;;;;;2.70;1.65;;;;;;;31.34;42.32;100380.08;1401725;99;21155;-50
2022/06/21 11:37:37;;;;;;;3.33;1.98;;;;;;;31.34;42.28;100390.83;1438628;99;21092;-51
2022/06/21 11:40:15;;;;;;;4.33;2.05;;;;;;;31.32;42.19;100387.48;1429546;99;21114;-51
2022/06/21 11:42:53;;;;;;;3.60;2.05;;;;;;;31.29;42.39;100389.16;1437910;99;21071;-50
2022/06/21 11:45:50;;;;;;;2.95;1.80;;;;;;;31.27;42.68;100387.16;1425450;100;21135;-49
2022/06/21 11:48:57;;;;;;;2.45;2.10;;;;;;;31.27;42.82;100385.81;1387929;101;21143;-49
2022/06/21 11:51:38;;;;;;;4.65;2.02;;;;;;;31.26;42.72;100388.18;1373045;104;21189;-50
2022/06/21 11:54:26;;;;;;;5.05;2.40;;;;;;;31.24;42.71;100377.58;1361854;105;21160;-53
2022/06/21 11:57:07;;;;;;;3.30;2.22;;;;;;;31.23;42.73;100383.98;1332709;107;21237;-50
2022/06/21 11:59:47;;;;;;;3.27;2.10;;;;;;;31.23;42.81;100380.45;1338232;104;21118;-50
2022/06/21 12:02:34;;;;;;;3.55;1.77;;;;;;;31.24;42.70;100376.77;1360596;105;21674;-52
2022/06/21 12:05:23;;;;;;;3.80;1.87;;;;;;;31.22;42.75;100364.82;1360507;105;21130;-55
2022/06/21 12:08:04;;;;;;;4.37;1.92;;;;;;;31.20;42.83;100364.16;1367434;105;21134;-50
2022/06/21 12:10:54;;;;;;;3.98;2.27;;;;;;;31.19;42.81;100368.38;1321044;108;21231;-50
2022/06/21 12:13:45;;;;;;;;;;;;;;;31.17;42.75;100365.02;1323760;108;21272;-53
2022/06/21 12:16:47;;;;;;;3.47;1.90;;;;;;;31.18;42.76;100365.38;1304052;109;20136;-50
2022/06/21 12:19:38;;;;;;;1.98;1.60;;;;;;;31.17;42.91;100360.99;1305122;109;21677;-51
2022/06/21 12:22:25;;;;;;;4.22;1.92;;;;;;;31.18;42.71;100361.34;1340362;106;21171;-51
2022/06/21 12:24:52;;;;;;;5.30;2.05;;;;;;;31.17;42.73;100359.65;1349328;106;21151;-49
2022/06/21 12:27:19;;;;;;;4.20;1.85;;;;;;;31.16;42.74;100357.98;1349412;106;21651;-50
2022/06/21 12:29:46;;;;;;;5.33;1.87;;;;;;;31.17;42.93;100348.90;1348461;106;21193;-49
2022/06/21 12:32:20;;;;;;;3.72;2.45;;;;;;;31.16;42.86;100342.67;1348652;105;21137;-51
2022/06/21 12:35:01;;;;;;;3.52;2.00;;;;;;;31.15;42.80;100337.48;1353463;105;21167;-52
2022/06/21 12:37:32;;;;;;;3.08;1.75;;;;;;;31.12;42.90;100329.75;1349344;105;21140;-48
2022/06/21 12:40:07;;;;;;;3.90;2.05;;;;;;;31.09;42.77;100328.78;1361353;105;21190;-53